sensor_id;sensor_type;location;lat;lon;timestamp;temperature;humidity
13328;DHT22;6733;51.044;3.746;2023-03-01T00:01:17;3.30;99.90
13328;DHT22;6733;51.044;3.746;2023-03-01T00:03:44;3.20;99.90
13328;DHT22;6733;51.044;3.746;2023-03-01T00:06:11;3.20;99.90
13328;DHT22;6733;51.044;3.746;2023-03-01T00:08:37;3.20;99.90
13328;DHT22;6733;51.044;3.746;2023-03-01T00:11:12;3.20;99.90
13328;DHT22;6733;51.044;3.746;2023-03-01T00:13:40;3.20;99.90
13328;DHT22;6733;51.044;3.746;2023-03-01T00:16:08;3.20;99.90
13328;DHT22;6733;51.044;3.746;2023-03-01T00:18:35;3.20;99.90
13328;DHT22;6733;51.044;3.746;2023-03-01T00:21:01;3.20;99.90
13328;DHT22;6733;51.044;3.746;2023-03-01T00:23:28;3.20;99.90
13328;DHT22;6733;51.044;3.746;2023-03-01T00:25:54;3.20;99.90
13328;DHT22;6733;51.044;3.746;2023-03-01T00:28:20;3.20;99.90
13328;DHT22;6733;51.044;3.746;2023-03-01T00:30:47;3.20;99.90
13328;DHT22;6733;51.044;3.746;2023-03-01T00:33:13;3.20;99.90
13328;DHT22;6733;51.044;3.746;2023-03-01T00:35:39;3.20;99.90
13328;DHT22;6733;51.044;3.746;2023-03-01T00:38:06;3.20;99.90
13328;DHT22;6733;51.044;3.746;2023-03-01T00:40:34;3.20;99.90
13328;DHT22;6733;51.044;3.746;2023-03-01T00:43:01;3.20;99.90
13328;DHT22;6733;51.044;3.746;2023-03-01T00:45:27;3.20;99.90
13328;DHT22;6733;51.044;3.746;2023-03-01T00:47:54;3.10;99.90
13328;DHT22;6733;51.044;3.746;2023-03-01T00:50:20;3.10;99.90
13328;DHT22;6733;51.044;3.746;2023-03-01T00:52:47;3.10;99.90
13328;DHT22;6733;51.044;3.746;2023-03-01T00:55:13;3.10;99.90
13328;DHT22;6733;51.044;3.746;2023-03-01T00:57:39;3.10;99.90
13328;DHT22;6733;51.044;3.746;2023-03-01T01:00:06;3.10;99.90
13328;DHT22;6733;51.044;3.746;2023-03-01T01:02:33;3.10;99.90
13328;DHT22;6733;51.044;3.746;2023-03-01T01:05:00;3.00;99.90
13328;DHT22;6733;51.044;3.746;2023-03-01T01:07:26;3.00;99.90
13328;DHT22;6733;51.044;3.746;2023-03-01T01:09:52;3.00;99.90
13328;DHT22;6733;51.044;3.746;2023-03-01T01:12:18;3.00;99.90
13328;DHT22;6733;51.044;3.746;2023-03-01T01:14:44;3.00;99.90
13328;DHT22;6733;51.044;3.746;2023-03-01T01:17:10;3.00;99.90
13328;DHT22;6733;51.044;3.746;2023-03-01T01:19:37;3.00;99.90
13328;DHT22;6733;51.044;3.746;2023-03-01T01:22:03;3.00;99.90
13328;DHT22;6733;51.044;3.746;2023-03-01T01:24:30;3.00;99.90
13328;DHT22;6733;51.044;3.746;2023-03-01T01:26:56;2.90;99.90
13328;DHT22;6733;51.044;3.746;2023-03-01T01:29:22;2.90;99.90
13328;DHT22;6733;51.044;3.746;2023-03-01T01:31:49;2.90;99.90
13328;DHT22;6733;51.044;3.746;2023-03-01T01:34:17;2.90;99.90
13328;DHT22;6733;51.044;3.746;2023-03-01T01:36:47;2.90;99.90
13328;DHT22;6733;51.044;3.746;2023-03-01T01:39:13;2.90;99.90
13328;DHT22;6733;51.044;3.746;2023-03-01T01:41:41;2.80;99.90
13328;DHT22;6733;51.044;3.746;2023-03-01T01:44:17;2.80;99.90
13328;DHT22;6733;51.044;3.746;2023-03-01T01:46:55;2.80;99.90
13328;DHT22;6733;51.044;3.746;2023-03-01T01:49:29;2.80;99.90
13328;DHT22;6733;51.044;3.746;2023-03-01T01:52:20;2.80;99.90
13328;DHT22;6733;51.044;3.746;2023-03-01T01:54:53;2.90;99.90
13328;DHT22;6733;51.044;3.746;2023-03-01T01:57:28;2.90;99.90
13328;DHT22;6733;51.044;3.746;2023-03-01T01:59:58;2.80;99.90
13328;DHT22;6733;51.044;3.746;2023-03-01T02:02:26;2.80;99.90
13328;DHT22;6733;51.044;3.746;2023-03-01T02:05:00;2.90;99.90
13328;DHT22;6733;51.044;3.746;2023-03-01T02:07:30;2.80;99.90
13328;DHT22;6733;51.044;3.746;2023-03-01T02:09:57;2.80;99.90
13328;DHT22;6733;51.044;3.746;2023-03-01T02:12:24;2.80;99.90
13328;DHT22;6733;51.044;3.746;2023-03-01T02:14:51;2.80;99.90
13328;DHT22;6733;51.044;3.746;2023-03-01T02:17:18;2.70;99.90
13328;DHT22;6733;51.044;3.746;2023-03-01T02:22:37;2.70;99.90
13328;DHT22;6733;51.044;3.746;2023-03-01T02:30:41;2.60;99.90
13328;DHT22;6733;51.044;3.746;2023-03-01T02:34:31;2.60;99.90
13328;DHT22;6733;51.044;3.746;2023-03-01T02:37:05;2.60;99.90
13328;DHT22;6733;51.044;3.746;2023-03-01T02:39:41;2.60;99.90
13328;DHT22;6733;51.044;3.746;2023-03-01T02:42:13;2.50;99.90
13328;DHT22;6733;51.044;3.746;2023-03-01T02:44:40;2.50;99.90
13328;DHT22;6733;51.044;3.746;2023-03-01T02:47:06;2.50;99.90
13328;DHT22;6733;51.044;3.746;2023-03-01T02:49:35;2.50;99.90
13328;DHT22;6733;51.044;3.746;2023-03-01T02:54:46;2.50;99.90
13328;DHT22;6733;51.044;3.746;2023-03-01T02:57:14;2.50;99.90
13328;DHT22;6733;51.044;3.746;2023-03-01T02:59:42;2.40;99.90
13328;DHT22;6733;51.044;3.746;2023-03-01T03:02:20;2.40;99.90
13328;DHT22;6733;51.044;3.746;2023-03-01T03:04:48;2.40;99.90
13328;DHT22;6733;51.044;3.746;2023-03-01T03:07:14;2.40;99.90
13328;DHT22;6733;51.044;3.746;2023-03-01T03:09:40;2.40;99.90
13328;DHT22;6733;51.044;3.746;2023-03-01T03:12:06;2.40;99.90
13328;DHT22;6733;51.044;3.746;2023-03-01T03:14:31;2.40;99.90
13328;DHT22;6733;51.044;3.746;2023-03-01T03:17:00;2.40;99.90
13328;DHT22;6733;51.044;3.746;2023-03-01T03:19:26;2.40;99.90
13328;DHT22;6733;51.044;3.746;2023-03-01T03:21:52;2.40;99.90
13328;DHT22;6733;51.044;3.746;2023-03-01T03:24:18;2.30;99.90
13328;DHT22;6733;51.044;3.746;2023-03-01T03:26:44;2.30;99.90
13328;DHT22;6733;51.044;3.746;2023-03-01T03:29:11;2.30;99.90
13328;DHT22;6733;51.044;3.746;2023-03-01T03:31:37;2.30;99.90
13328;DHT22;6733;51.044;3.746;2023-03-01T03:34:03;2.20;99.90
13328;DHT22;6733;51.044;3.746;2023-03-01T03:36:29;2.30;99.90
13328;DHT22;6733;51.044;3.746;2023-03-01T03:38:55;2.20;99.90
13328;DHT22;6733;51.044;3.746;2023-03-01T03:41:21;2.20;99.90
13328;DHT22;6733;51.044;3.746;2023-03-01T03:43:48;2.20;99.90
13328;DHT22;6733;51.044;3.746;2023-03-01T03:46:14;2.20;99.90
13328;DHT22;6733;51.044;3.746;2023-03-01T03:48:42;2.20;99.90
13328;DHT22;6733;51.044;3.746;2023-03-01T03:51:16;2.20;99.90
13328;DHT22;6733;51.044;3.746;2023-03-01T03:53:43;2.20;99.90
13328;DHT22;6733;51.044;3.746;2023-03-01T03:56:10;2.20;99.90
13328;DHT22;6733;51.044;3.746;2023-03-01T03:58:37;2.20;99.90
13328;DHT22;6733;51.044;3.746;2023-03-01T04:01:04;2.20;99.90
13328;DHT22;6733;51.044;3.746;2023-03-01T04:03:31;2.20;99.90
13328;DHT22;6733;51.044;3.746;2023-03-01T04:05:59;2.20;99.90
13328;DHT22;6733;51.044;3.746;2023-03-01T04:08:25;2.20;99.90
13328;DHT22;6733;51.044;3.746;2023-03-01T04:10:57;2.30;99.90
13328;DHT22;6733;51.044;3.746;2023-03-01T04:13:24;2.20;99.90
13328;DHT22;6733;51.044;3.746;2023-03-01T04:15:52;2.20;99.90
13328;DHT22;6733;51.044;3.746;2023-03-01T04:18:19;2.30;99.90
13328;DHT22;6733;51.044;3.746;2023-03-01T04:20:46;2.20;99.90
13328;DHT22;6733;51.044;3.746;2023-03-01T04:23:17;2.20;99.90
13328;DHT22;6733;51.044;3.746;2023-03-01T04:25:50;2.20;99.90
13328;DHT22;6733;51.044;3.746;2023-03-01T04:28:33;2.20;99.90
13328;DHT22;6733;51.044;3.746;2023-03-01T04:31:04;2.20;99.90
13328;DHT22;6733;51.044;3.746;2023-03-01T04:33:43;2.20;99.90
13328;DHT22;6733;51.044;3.746;2023-03-01T04:36:10;2.20;99.90
13328;DHT22;6733;51.044;3.746;2023-03-01T04:38:37;2.20;99.90
13328;DHT22;6733;51.044;3.746;2023-03-01T04:41:09;2.10;99.90
13328;DHT22;6733;51.044;3.746;2023-03-01T04:43:35;2.10;99.90
13328;DHT22;6733;51.044;3.746;2023-03-01T04:46:03;2.10;99.90
13328;DHT22;6733;51.044;3.746;2023-03-01T04:48:31;2.10;99.90
13328;DHT22;6733;51.044;3.746;2023-03-01T04:50:59;2.10;99.90
13328;DHT22;6733;51.044;3.746;2023-03-01T04:53:26;2.00;99.90
13328;DHT22;6733;51.044;3.746;2023-03-01T04:55:53;2.10;99.90
13328;DHT22;6733;51.044;3.746;2023-03-01T04:58:19;2.10;99.90
13328;DHT22;6733;51.044;3.746;2023-03-01T05:00:45;2.00;99.90
13328;DHT22;6733;51.044;3.746;2023-03-01T05:03:11;2.00;99.90
13328;DHT22;6733;51.044;3.746;2023-03-01T05:05:38;2.00;99.90
13328;DHT22;6733;51.044;3.746;2023-03-01T05:08:07;2.00;99.90
13328;DHT22;6733;51.044;3.746;2023-03-01T05:10:35;2.00;99.90
13328;DHT22;6733;51.044;3.746;2023-03-01T05:13:02;2.00;99.90
13328;DHT22;6733;51.044;3.746;2023-03-01T05:15:30;2.00;99.90
13328;DHT22;6733;51.044;3.746;2023-03-01T05:17:58;2.00;99.90
13328;DHT22;6733;51.044;3.746;2023-03-01T05:20:26;2.00;99.90
13328;DHT22;6733;51.044;3.746;2023-03-01T05:22:56;2.00;99.90
13328;DHT22;6733;51.044;3.746;2023-03-01T05:25:23;2.00;99.90
13328;DHT22;6733;51.044;3.746;2023-03-01T05:27:49;2.00;99.90
13328;DHT22;6733;51.044;3.746;2023-03-01T05:30:16;1.90;99.90
13328;DHT22;6733;51.044;3.746;2023-03-01T05:32:48;1.90;99.90
13328;DHT22;6733;51.044;3.746;2023-03-01T05:35:17;1.90;99.90
13328;DHT22;6733;51.044;3.746;2023-03-01T05:37:46;1.90;99.90
13328;DHT22;6733;51.044;3.746;2023-03-01T05:40:14;1.90;99.90
13328;DHT22;6733;51.044;3.746;2023-03-01T05:42:55;1.90;99.90
13328;DHT22;6733;51.044;3.746;2023-03-01T05:45:24;1.90;99.90
13328;DHT22;6733;51.044;3.746;2023-03-01T05:47:51;1.90;99.90
13328;DHT22;6733;51.044;3.746;2023-03-01T05:50:22;1.90;99.90
13328;DHT22;6733;51.044;3.746;2023-03-01T05:52:51;1.90;99.90
13328;DHT22;6733;51.044;3.746;2023-03-01T05:55:19;1.90;99.90
13328;DHT22;6733;51.044;3.746;2023-03-01T05:57:46;1.90;99.90
13328;DHT22;6733;51.044;3.746;2023-03-01T06:00:18;1.90;99.90
13328;DHT22;6733;51.044;3.746;2023-03-01T06:02:45;1.90;99.90
13328;DHT22;6733;51.044;3.746;2023-03-01T06:05:12;1.90;99.90
13328;DHT22;6733;51.044;3.746;2023-03-01T06:07:39;1.90;99.90
13328;DHT22;6733;51.044;3.746;2023-03-01T06:10:06;1.90;99.90
13328;DHT22;6733;51.044;3.746;2023-03-01T06:12:34;1.90;99.90
13328;DHT22;6733;51.044;3.746;2023-03-01T06:15:01;1.90;99.90
13328;DHT22;6733;51.044;3.746;2023-03-01T06:17:32;1.90;99.90
13328;DHT22;6733;51.044;3.746;2023-03-01T06:19:58;1.80;99.90
13328;DHT22;6733;51.044;3.746;2023-03-01T06:22:24;1.80;99.90
13328;DHT22;6733;51.044;3.746;2023-03-01T06:24:50;1.80;99.90
13328;DHT22;6733;51.044;3.746;2023-03-01T06:27:15;1.80;99.90
13328;DHT22;6733;51.044;3.746;2023-03-01T06:29:41;1.80;99.90
13328;DHT22;6733;51.044;3.746;2023-03-01T06:32:08;1.80;99.90
13328;DHT22;6733;51.044;3.746;2023-03-01T06:34:34;1.80;99.90
13328;DHT22;6733;51.044;3.746;2023-03-01T06:37:00;1.80;99.90
13328;DHT22;6733;51.044;3.746;2023-03-01T06:39:28;1.80;99.90
13328;DHT22;6733;51.044;3.746;2023-03-01T06:41:54;1.80;99.90
13328;DHT22;6733;51.044;3.746;2023-03-01T06:44:20;1.80;99.90
13328;DHT22;6733;51.044;3.746;2023-03-01T06:46:46;1.80;99.90
13328;DHT22;6733;51.044;3.746;2023-03-01T06:49:13;1.80;99.90
13328;DHT22;6733;51.044;3.746;2023-03-01T06:51:39;1.80;99.90
13328;DHT22;6733;51.044;3.746;2023-03-01T06:54:05;1.80;99.90
13328;DHT22;6733;51.044;3.746;2023-03-01T06:56:32;1.80;99.90
13328;DHT22;6733;51.044;3.746;2023-03-01T06:58:58;1.90;99.90
13328;DHT22;6733;51.044;3.746;2023-03-01T07:01:24;1.90;99.90
13328;DHT22;6733;51.044;3.746;2023-03-01T07:03:50;1.90;99.90
13328;DHT22;6733;51.044;3.746;2023-03-01T07:06:17;1.90;99.90
13328;DHT22;6733;51.044;3.746;2023-03-01T07:08:43;2.00;99.90
13328;DHT22;6733;51.044;3.746;2023-03-01T07:11:09;2.00;99.90
13328;DHT22;6733;51.044;3.746;2023-03-01T07:13:35;2.00;99.90
13328;DHT22;6733;51.044;3.746;2023-03-01T07:16:01;2.10;99.90
13328;DHT22;6733;51.044;3.746;2023-03-01T07:18:28;2.10;99.90
13328;DHT22;6733;51.044;3.746;2023-03-01T07:20:54;2.10;99.90
13328;DHT22;6733;51.044;3.746;2023-03-01T07:23:20;2.10;99.90
13328;DHT22;6733;51.044;3.746;2023-03-01T07:25:55;2.20;99.90
13328;DHT22;6733;51.044;3.746;2023-03-01T07:28:25;2.20;99.90
13328;DHT22;6733;51.044;3.746;2023-03-01T07:30:51;2.30;99.90
13328;DHT22;6733;51.044;3.746;2023-03-01T07:33:17;2.30;99.90
13328;DHT22;6733;51.044;3.746;2023-03-01T07:35:43;2.30;99.90
13328;DHT22;6733;51.044;3.746;2023-03-01T07:38:10;2.40;99.90
13328;DHT22;6733;51.044;3.746;2023-03-01T07:40:36;2.50;99.90
13328;DHT22;6733;51.044;3.746;2023-03-01T07:43:02;2.50;99.90
13328;DHT22;6733;51.044;3.746;2023-03-01T07:45:28;2.60;99.90
13328;DHT22;6733;51.044;3.746;2023-03-01T07:47:54;2.60;99.90
13328;DHT22;6733;51.044;3.746;2023-03-01T07:50:22;2.70;99.90
13328;DHT22;6733;51.044;3.746;2023-03-01T07:52:49;2.80;99.90
13328;DHT22;6733;51.044;3.746;2023-03-01T07:55:16;2.80;99.90
13328;DHT22;6733;51.044;3.746;2023-03-01T07:57:42;2.90;99.90
13328;DHT22;6733;51.044;3.746;2023-03-01T08:00:10;2.90;99.90
13328;DHT22;6733;51.044;3.746;2023-03-01T08:02:37;3.00;99.90
13328;DHT22;6733;51.044;3.746;2023-03-01T08:05:03;2.60;99.90
13328;DHT22;6733;51.044;3.746;2023-03-01T08:07:30;2.30;99.90
13328;DHT22;6733;51.044;3.746;2023-03-01T08:09:56;2.10;99.90
13328;DHT22;6733;51.044;3.746;2023-03-01T08:12:21;2.10;99.90
13328;DHT22;6733;51.044;3.746;2023-03-01T08:14:47;2.10;99.90
13328;DHT22;6733;51.044;3.746;2023-03-01T08:17:14;2.10;99.90
13328;DHT22;6733;51.044;3.746;2023-03-01T08:19:40;2.10;99.90
13328;DHT22;6733;51.044;3.746;2023-03-01T08:22:06;2.10;99.90
13328;DHT22;6733;51.044;3.746;2023-03-01T08:24:32;2.20;99.90
13328;DHT22;6733;51.044;3.746;2023-03-01T08:26:58;2.40;99.90
13328;DHT22;6733;51.044;3.746;2023-03-01T08:29:24;2.40;99.90
13328;DHT22;6733;51.044;3.746;2023-03-01T08:31:51;2.40;99.90
13328;DHT22;6733;51.044;3.746;2023-03-01T08:34:18;2.40;99.90
13328;DHT22;6733;51.044;3.746;2023-03-01T08:36:45;2.40;99.90
13328;DHT22;6733;51.044;3.746;2023-03-01T08:39:14;2.50;99.90
13328;DHT22;6733;51.044;3.746;2023-03-01T08:41:41;2.50;99.90
13328;DHT22;6733;51.044;3.746;2023-03-01T08:44:09;2.60;99.90
13328;DHT22;6733;51.044;3.746;2023-03-01T08:46:40;2.60;99.90
13328;DHT22;6733;51.044;3.746;2023-03-01T08:49:08;2.70;99.90
13328;DHT22;6733;51.044;3.746;2023-03-01T08:51:35;2.80;99.90
13328;DHT22;6733;51.044;3.746;2023-03-01T08:54:12;2.90;99.90
13328;DHT22;6733;51.044;3.746;2023-03-01T08:56:38;3.00;99.90
13328;DHT22;6733;51.044;3.746;2023-03-01T08:59:05;3.10;99.90
13328;DHT22;6733;51.044;3.746;2023-03-01T09:01:31;3.10;99.90
13328;DHT22;6733;51.044;3.746;2023-03-01T09:03:57;3.10;99.90
13328;DHT22;6733;51.044;3.746;2023-03-01T09:06:23;3.30;99.90
13328;DHT22;6733;51.044;3.746;2023-03-01T09:08:50;3.40;99.90
13328;DHT22;6733;51.044;3.746;2023-03-01T09:11:19;3.40;99.90
13328;DHT22;6733;51.044;3.746;2023-03-01T09:13:47;3.50;99.90
13328;DHT22;6733;51.044;3.746;2023-03-01T09:16:15;3.60;99.90
13328;DHT22;6733;51.044;3.746;2023-03-01T09:18:42;3.80;99.90
13328;DHT22;6733;51.044;3.746;2023-03-01T09:21:14;3.70;99.90
13328;DHT22;6733;51.044;3.746;2023-03-01T09:23:42;3.90;99.90
13328;DHT22;6733;51.044;3.746;2023-03-01T09:26:15;4.00;99.90
13328;DHT22;6733;51.044;3.746;2023-03-01T09:28:42;4.00;99.90
13328;DHT22;6733;51.044;3.746;2023-03-01T09:31:10;4.00;99.90
13328;DHT22;6733;51.044;3.746;2023-03-01T09:33:39;4.10;99.90
13328;DHT22;6733;51.044;3.746;2023-03-01T09:36:07;4.10;99.90
13328;DHT22;6733;51.044;3.746;2023-03-01T09:38:34;4.00;99.90
13328;DHT22;6733;51.044;3.746;2023-03-01T09:41:01;4.20;99.90
13328;DHT22;6733;51.044;3.746;2023-03-01T09:46:13;4.50;99.90
13328;DHT22;6733;51.044;3.746;2023-03-01T09:48:56;4.50;99.90
13328;DHT22;6733;51.044;3.746;2023-03-01T09:51:26;4.50;99.90
13328;DHT22;6733;51.044;3.746;2023-03-01T09:53:53;4.70;99.90
13328;DHT22;6733;51.044;3.746;2023-03-01T09:56:36;4.80;99.90
13328;DHT22;6733;51.044;3.746;2023-03-01T10:02:02;5.10;99.90
13328;DHT22;6733;51.044;3.746;2023-03-01T10:04:47;4.90;99.90
13328;DHT22;6733;51.044;3.746;2023-03-01T10:10:08;5.00;99.90
13328;DHT22;6733;51.044;3.746;2023-03-01T10:12:39;5.10;99.90
13328;DHT22;6733;51.044;3.746;2023-03-01T10:15:19;5.10;99.90
13328;DHT22;6733;51.044;3.746;2023-03-01T10:18:09;5.30;99.90
13328;DHT22;6733;51.044;3.746;2023-03-01T10:23:44;5.70;99.90
13328;DHT22;6733;51.044;3.746;2023-03-01T10:29:02;5.60;99.90
13328;DHT22;6733;51.044;3.746;2023-03-01T10:34:09;5.90;99.90
13328;DHT22;6733;51.044;3.746;2023-03-01T10:36:36;5.90;99.90
13328;DHT22;6733;51.044;3.746;2023-03-01T10:39:12;6.10;99.90
13328;DHT22;6733;51.044;3.746;2023-03-01T10:47:08;6.40;99.90
13328;DHT22;6733;51.044;3.746;2023-03-01T10:49:37;6.10;99.90
13328;DHT22;6733;51.044;3.746;2023-03-01T10:52:22;5.90;99.90
13328;DHT22;6733;51.044;3.746;2023-03-01T10:54:54;6.00;99.90
13328;DHT22;6733;51.044;3.746;2023-03-01T10:57:39;6.20;99.90
13328;DHT22;6733;51.044;3.746;2023-03-01T11:00:20;6.20;99.90
13328;DHT22;6733;51.044;3.746;2023-03-01T11:02:50;6.30;99.90
13328;DHT22;6733;51.044;3.746;2023-03-01T11:05:21;6.60;99.90
13328;DHT22;6733;51.044;3.746;2023-03-01T11:07:50;6.60;99.90
13328;DHT22;6733;51.044;3.746;2023-03-01T11:13:16;6.90;99.90
13328;DHT22;6733;51.044;3.746;2023-03-01T11:15:43;6.80;99.90
13328;DHT22;6733;51.044;3.746;2023-03-01T11:18:20;7.20;99.90
13328;DHT22;6733;51.044;3.746;2023-03-01T11:20:48;7.50;99.90
13328;DHT22;6733;51.044;3.746;2023-03-01T11:23:17;7.40;99.90
13328;DHT22;6733;51.044;3.746;2023-03-01T11:25:51;7.50;99.90
13328;DHT22;6733;51.044;3.746;2023-03-01T11:28:21;7.10;99.90
13328;DHT22;6733;51.044;3.746;2023-03-01T11:39:20;7.50;99.90
13328;DHT22;6733;51.044;3.746;2023-03-01T11:41:59;7.60;99.90
13328;DHT22;6733;51.044;3.746;2023-03-01T11:44:31;7.30;99.90
13328;DHT22;6733;51.044;3.746;2023-03-01T11:47:15;7.40;99.90
13328;DHT22;6733;51.044;3.746;2023-03-01T11:55:26;7.90;99.90
13328;DHT22;6733;51.044;3.746;2023-03-01T11:58:22;7.70;99.20
13328;DHT22;6733;51.044;3.746;2023-03-01T12:04:00;7.70;99.40
13328;DHT22;6733;51.044;3.746;2023-03-01T12:20:45;7.50;99.00
13328;DHT22;6733;51.044;3.746;2023-03-01T12:32:18;8.10;98.70
13328;DHT22;6733;51.044;3.746;2023-03-01T12:43:57;8.10;97.40
13328;DHT22;6733;51.044;3.746;2023-03-01T12:49:13;8.10;98.00
13328;DHT22;6733;51.044;3.746;2023-03-01T12:51:50;8.00;97.50
13328;DHT22;6733;51.044;3.746;2023-03-01T12:54:26;8.10;97.20
13328;DHT22;6733;51.044;3.746;2023-03-01T12:56:53;7.80;97.50
13328;DHT22;6733;51.044;3.746;2023-03-01T12:59:59;7.80;97.30
13328;DHT22;6733;51.044;3.746;2023-03-01T13:02:34;8.20;96.70
13328;DHT22;6733;51.044;3.746;2023-03-01T13:05:29;8.20;96.40
13328;DHT22;6733;51.044;3.746;2023-03-01T13:08:13;8.20;96.20
13328;DHT22;6733;51.044;3.746;2023-03-01T13:13:19;8.20;96.80
13328;DHT22;6733;51.044;3.746;2023-03-01T13:15:46;8.00;96.90
13328;DHT22;6733;51.044;3.746;2023-03-01T13:33:53;8.30;96.40
13328;DHT22;6733;51.044;3.746;2023-03-01T13:38:57;8.20;96.40
13328;DHT22;6733;51.044;3.746;2023-03-01T13:44:21;7.90;97.00
13328;DHT22;6733;51.044;3.746;2023-03-01T13:46:53;8.20;96.30
13328;DHT22;6733;51.044;3.746;2023-03-01T13:49:25;7.90;96.60
13328;DHT22;6733;51.044;3.746;2023-03-01T13:51:52;8.00;96.10
13328;DHT22;6733;51.044;3.746;2023-03-01T13:54:31;8.20;95.60
13328;DHT22;6733;51.044;3.746;2023-03-01T13:57:00;8.10;96.30
13328;DHT22;6733;51.044;3.746;2023-03-01T13:59:27;7.90;97.10
13328;DHT22;6733;51.044;3.746;2023-03-01T14:01:58;8.00;97.30
13328;DHT22;6733;51.044;3.746;2023-03-01T14:04:29;8.20;97.10
13328;DHT22;6733;51.044;3.746;2023-03-01T14:09:41;8.30;96.90
13328;DHT22;6733;51.044;3.746;2023-03-01T14:15:01;8.60;96.70
13328;DHT22;6733;51.044;3.746;2023-03-01T14:20:23;8.50;96.90
13328;DHT22;6733;51.044;3.746;2023-03-01T14:22:53;8.60;97.30
13328;DHT22;6733;51.044;3.746;2023-03-01T14:28:03;8.60;97.50
13328;DHT22;6733;51.044;3.746;2023-03-01T14:30:37;9.00;97.30
13328;DHT22;6733;51.044;3.746;2023-03-01T14:33:17;9.40;96.80
13328;DHT22;6733;51.044;3.746;2023-03-01T14:35:52;9.70;96.60
13328;DHT22;6733;51.044;3.746;2023-03-01T14:38:30;10.30;95.80
13328;DHT22;6733;51.044;3.746;2023-03-01T14:40:59;10.80;95.00
13328;DHT22;6733;51.044;3.746;2023-03-01T14:43:29;11.20;94.50
13328;DHT22;6733;51.044;3.746;2023-03-01T14:45:56;11.80;93.40
13328;DHT22;6733;51.044;3.746;2023-03-01T14:48:23;11.90;92.40
13328;DHT22;6733;51.044;3.746;2023-03-01T14:50:50;11.90;92.90
13328;DHT22;6733;51.044;3.746;2023-03-01T14:53:23;12.30;92.40
13328;DHT22;6733;51.044;3.746;2023-03-01T14:55:55;13.30;91.50
13328;DHT22;6733;51.044;3.746;2023-03-01T14:58:23;13.00;90.90
13328;DHT22;6733;51.044;3.746;2023-03-01T15:00:56;13.30;90.30
13328;DHT22;6733;51.044;3.746;2023-03-01T15:03:46;12.90;90.50
13328;DHT22;6733;51.044;3.746;2023-03-01T15:06:19;13.00;90.40
13328;DHT22;6733;51.044;3.746;2023-03-01T15:08:48;12.80;90.10
13328;DHT22;6733;51.044;3.746;2023-03-01T15:11:29;13.00;90.10
13328;DHT22;6733;51.044;3.746;2023-03-01T15:13:56;12.00;90.40
13328;DHT22;6733;51.044;3.746;2023-03-01T15:16:31;12.90;90.10
13328;DHT22;6733;51.044;3.746;2023-03-01T15:19:04;12.60;89.20
13328;DHT22;6733;51.044;3.746;2023-03-01T15:21:36;12.70;88.90
13328;DHT22;6733;51.044;3.746;2023-03-01T15:26:59;13.00;86.70
13328;DHT22;6733;51.044;3.746;2023-03-01T15:29:33;12.40;85.90
13328;DHT22;6733;51.044;3.746;2023-03-01T15:32:06;12.80;85.60
13328;DHT22;6733;51.044;3.746;2023-03-01T15:34:46;12.80;84.50
13328;DHT22;6733;51.044;3.746;2023-03-01T15:37:44;13.10;84.40
13328;DHT22;6733;51.044;3.746;2023-03-01T15:40:22;12.90;83.80
13328;DHT22;6733;51.044;3.746;2023-03-01T15:42:51;13.40;82.70
13328;DHT22;6733;51.044;3.746;2023-03-01T15:45:21;13.60;83.30
13328;DHT22;6733;51.044;3.746;2023-03-01T15:47:49;14.00;81.80
13328;DHT22;6733;51.044;3.746;2023-03-01T15:50:28;13.90;81.20
13328;DHT22;6733;51.044;3.746;2023-03-01T15:52:56;14.00;81.20
13328;DHT22;6733;51.044;3.746;2023-03-01T15:55:27;13.60;81.30
13328;DHT22;6733;51.044;3.746;2023-03-01T15:58:17;12.90;82.70
13328;DHT22;6733;51.044;3.746;2023-03-01T16:00:45;10.70;87.60
13328;DHT22;6733;51.044;3.746;2023-03-01T16:03:12;9.20;91.20
13328;DHT22;6733;51.044;3.746;2023-03-01T16:05:39;8.70;92.20
13328;DHT22;6733;51.044;3.746;2023-03-01T16:08:06;8.40;92.30
13328;DHT22;6733;51.044;3.746;2023-03-01T16:10:33;8.30;92.80
13328;DHT22;6733;51.044;3.746;2023-03-01T16:13:02;8.10;93.80
13328;DHT22;6733;51.044;3.746;2023-03-01T16:15:31;7.90;94.10
13328;DHT22;6733;51.044;3.746;2023-03-01T16:18:02;7.90;93.90
13328;DHT22;6733;51.044;3.746;2023-03-01T16:20:29;7.80;94.10
13328;DHT22;6733;51.044;3.746;2023-03-01T16:22:58;7.60;94.30
13328;DHT22;6733;51.044;3.746;2023-03-01T16:25:26;7.50;94.60
13328;DHT22;6733;51.044;3.746;2023-03-01T16:27:52;7.40;94.80
13328;DHT22;6733;51.044;3.746;2023-03-01T16:30:20;7.30;94.90
13328;DHT22;6733;51.044;3.746;2023-03-01T16:32:48;7.20;95.10
13328;DHT22;6733;51.044;3.746;2023-03-01T16:35:17;7.20;95.60
13328;DHT22;6733;51.044;3.746;2023-03-01T16:37:44;7.20;95.60
13328;DHT22;6733;51.044;3.746;2023-03-01T16:40:18;7.20;95.80
13328;DHT22;6733;51.044;3.746;2023-03-01T16:42:48;7.10;95.60
13328;DHT22;6733;51.044;3.746;2023-03-01T16:45:15;7.10;95.70
13328;DHT22;6733;51.044;3.746;2023-03-01T16:47:52;7.10;96.10
13328;DHT22;6733;51.044;3.746;2023-03-01T16:50:18;7.10;96.30
13328;DHT22;6733;51.044;3.746;2023-03-01T16:52:45;7.00;96.10
13328;DHT22;6733;51.044;3.746;2023-03-01T16:55:11;6.90;96.30
13328;DHT22;6733;51.044;3.746;2023-03-01T16:57:38;6.90;96.10
13328;DHT22;6733;51.044;3.746;2023-03-01T17:00:05;6.80;96.50
13328;DHT22;6733;51.044;3.746;2023-03-01T17:02:36;6.80;96.70
13328;DHT22;6733;51.044;3.746;2023-03-01T17:05:03;6.70;96.60
13328;DHT22;6733;51.044;3.746;2023-03-01T17:07:31;6.70;96.70
13328;DHT22;6733;51.044;3.746;2023-03-01T17:10:03;6.60;96.90
13328;DHT22;6733;51.044;3.746;2023-03-01T17:12:30;6.60;96.90
13328;DHT22;6733;51.044;3.746;2023-03-01T17:14:57;6.50;97.20
13328;DHT22;6733;51.044;3.746;2023-03-01T17:17:26;6.40;97.30
13328;DHT22;6733;51.044;3.746;2023-03-01T17:19:53;6.40;97.00
13328;DHT22;6733;51.044;3.746;2023-03-01T17:22:19;6.40;97.10
13328;DHT22;6733;51.044;3.746;2023-03-01T17:24:45;6.30;97.20
13328;DHT22;6733;51.044;3.746;2023-03-01T17:27:12;6.20;97.50
13328;DHT22;6733;51.044;3.746;2023-03-01T17:29:40;6.20;97.50
13328;DHT22;6733;51.044;3.746;2023-03-01T17:32:07;6.10;97.50
13328;DHT22;6733;51.044;3.746;2023-03-01T17:34:34;6.10;97.40
13328;DHT22;6733;51.044;3.746;2023-03-01T17:37:02;6.00;97.40
13328;DHT22;6733;51.044;3.746;2023-03-01T17:39:29;6.00;97.30
13328;DHT22;6733;51.044;3.746;2023-03-01T17:42:02;6.00;97.30
13328;DHT22;6733;51.044;3.746;2023-03-01T17:44:30;5.90;97.80
13328;DHT22;6733;51.044;3.746;2023-03-01T17:46:57;5.80;97.60
13328;DHT22;6733;51.044;3.746;2023-03-01T17:49:23;5.80;97.80
13328;DHT22;6733;51.044;3.746;2023-03-01T17:51:49;5.70;98.00
13328;DHT22;6733;51.044;3.746;2023-03-01T17:54:16;5.70;98.10
13328;DHT22;6733;51.044;3.746;2023-03-01T17:56:42;5.70;98.10
13328;DHT22;6733;51.044;3.746;2023-03-01T17:59:08;5.70;98.20
13328;DHT22;6733;51.044;3.746;2023-03-01T18:01:34;5.70;98.30
13328;DHT22;6733;51.044;3.746;2023-03-01T18:04:01;5.80;98.30
13328;DHT22;6733;51.044;3.746;2023-03-01T18:06:28;5.80;98.40
13328;DHT22;6733;51.044;3.746;2023-03-01T18:08:54;5.80;98.50
13328;DHT22;6733;51.044;3.746;2023-03-01T18:11:22;5.80;98.80
13328;DHT22;6733;51.044;3.746;2023-03-01T18:13:49;5.80;98.60
13328;DHT22;6733;51.044;3.746;2023-03-01T18:16:21;5.80;98.60
13328;DHT22;6733;51.044;3.746;2023-03-01T18:18:52;5.90;98.60
13328;DHT22;6733;51.044;3.746;2023-03-01T18:21:18;5.90;98.70